Time;durP1;ratioP1;P1;durP2;ratioP2;P2;SDS_P1;SDS_P2;PMS_P1;PMS_P2;Temp;Humidity;BMP_temperature;BMP_pressure;BME280_temperature;BME280_humidity;BME280_pressure;Samples;Min_cycle;Max_cycle;Signal;HPM_P1;HPM_P2
2022/01/19 00:03:19;;;;;;;33.13;16.05;;;;;;;-3.95;64.17;99098.47;10413040;28;19959;-59
2022/01/19 00:08:20;;;;;;;;;;;;;;;-3.93;63.72;99104.50;10413483;28;20078;-59
2022/01/19 00:13:20;;;;;;;70.00;35.20;;;;;;;-4.00;63.60;99107.34;10413018;28;19959;-59
2022/01/19 00:18:21;;;;;;;32.28;17.20;;;;;;;-4.03;63.96;99110.53;10409558;28;20067;-59
2022/01/19 00:23:21;;;;;;;39.33;20.38;;;;;;;-3.96;63.99;99137.25;10445736;28;20477;-59
2022/01/19 00:28:21;;;;;;;33.75;18.10;;;;;;;-3.99;63.63;99137.00;10453557;28;20066;-59
2022/01/19 00:33:20;;;;;;;28.20;16.00;;;;;;;-4.04;64.22;99136.66;10452966;28;20079;-59
2022/01/19 00:38:19;;;;;;;32.95;18.50;;;;;;;-4.04;64.23;99151.00;10453889;28;20067;-59
2022/01/19 00:43:18;;;;;;;57.40;26.30;;;;;;;-4.13;65.72;99162.94;10453002;28;20067;-59
2022/01/19 00:48:17;;;;;;;103.97;50.05;;;;;;;-4.10;65.31;99163.16;10449209;28;20027;-59
2022/01/19 00:53:16;;;;;;;63.33;30.23;;;;;;;-4.06;65.21;99182.94;10452461;28;20044;-59
2022/01/19 00:58:15;;;;;;;49.60;23.55;;;;;;;-4.04;65.14;99181.41;10452926;28;20034;-59
2022/01/19 01:03:14;;;;;;;;;;;;;;;-4.06;64.75;99170.25;10432920;28;20063;-59
2022/01/19 01:08:13;;;;;;;38.67;20.17;;;;;;;-4.19;65.52;99156.59;10453358;28;19911;-59
2022/01/19 01:18:43;;;;;;;39.55;21.00;;;;;;;-4.28;65.20;99150.81;10376646;28;20130;-59
2022/01/19 01:23:42;;;;;;;;;;;;;;;-4.29;65.97;99149.03;10411743;28;20482;-59
2022/01/19 01:28:41;;;;;;;28.27;13.90;;;;;;;-4.54;65.69;99098.06;10410262;28;20388;-59
2022/01/19 01:33:40;;;;;;;;;;;;;;;-4.36;65.83;99143.38;10397197;28;20084;-59
2022/01/19 01:38:39;;;;;;;22.50;12.73;;;;;;;-4.41;66.81;99137.94;10370108;28;19913;-59
2022/01/19 01:43:38;;;;;;;;;;;;;;;-4.48;67.41;99136.56;10370013;28;20462;-59
2022/01/19 01:48:43;;;;;;;48.58;26.70;;;;;;;-4.53;66.46;99114.16;10402044;28;20403;-59
2022/01/19 01:53:41;;;;;;;56.70;29.50;;;;;;;-4.56;66.90;99131.63;10406953;28;20076;-59
2022/01/19 01:58:44;;;;;;;50.25;24.73;;;;;;;-4.69;67.65;99127.25;10410525;28;20037;-59
2022/01/19 02:03:44;;;;;;;47.05;25.75;;;;;;;-4.71;67.86;99116.97;10410534;28;20070;-59
2022/01/19 02:24:32;;;;;;;49.38;27.35;;;;;;;-4.80;68.84;99074.84;10382042;28;20065;-59
2022/01/19 02:40:14;;;;;;;44.67;21.90;;;;;;;-4.77;68.61;99087.75;10417531;28;20491;-59
2022/01/19 02:50:12;;;;;;;35.22;19.05;;;;;;;-4.80;68.96;99095.97;10416321;28;20116;-59
2022/01/19 02:55:11;;;;;;;60.72;30.60;;;;;;;-4.79;68.48;99097.78;10413251;28;20037;-59
2022/01/19 03:10:46;;;;;;;24.75;12.40;;;;;;;-4.89;67.94;99100.31;10413714;28;20064;-59
2022/01/19 03:15:45;;;;;;;21.85;10.52;;;;;;;-4.91;67.70;99101.81;10415003;28;20103;-59
2022/01/19 03:20:44;;;;;;;25.63;11.38;;;;;;;-4.97;68.38;99096.28;10415035;28;20587;-59
2022/01/19 03:25:43;;;;;;;24.63;11.82;;;;;;;-4.97;67.95;99106.41;10406030;28;20550;-59
2022/01/19 03:30:43;;;;;;;65.40;34.40;;;;;;;-5.04;68.82;99107.53;10415048;28;20071;-59
2022/01/19 03:35:43;;;;;;;66.65;30.77;;;;;;;-5.13;68.36;99110.19;10396322;28;20071;-59
2022/01/19 03:40:42;;;;;;;64.97;33.00;;;;;;;-5.21;69.09;99101.13;10413777;28;20492;-59
2022/01/19 03:45:50;;;;;;;;;;;;;;;-5.17;69.13;99103.13;10414860;28;20068;-59
2022/01/19 03:50:49;;;;;;;62.88;30.95;;;;;;;-5.23;69.80;99105.16;10414380;28;19963;-59
2022/01/19 03:55:48;;;;;;;;;;;;;;;-5.25;69.98;99116.78;10409173;28;20064;-59
2022/01/19 04:00:53;;;;;;;48.95;23.92;;;;;;;-5.31;69.32;99113.75;10413751;28;19942;-58
2022/01/19 04:10:51;;;;;;;43.15;21.15;;;;;;;-5.13;70.32;99132.97;10412916;28;20075;-58
2022/01/19 04:15:50;;;;;;;;;;;;;;;-5.07;69.89;99127.56;10413552;28;20167;-59
2022/01/19 04:20:51;;;;;;;49.80;23.00;;;;;;;-4.99;69.84;99139.19;10412998;28;19959;-59
2022/01/19 04:25:50;;;;;;;65.60;33.13;;;;;;;-4.89;70.84;99144.22;10409316;28;20519;-58
2022/01/19 04:30:49;;;;;;;76.68;39.67;;;;;;;-4.89;70.04;99145.88;10412842;28;20479;-58
2022/01/19 04:35:53;;;;;;;60.88;31.80;;;;;;;-4.78;70.93;99150.16;10409836;28;20067;-58
2022/01/19 05:06:45;;;;;;;29.60;15.70;;;;;;;-4.84;70.85;99174.97;10411702;28;20484;-58
2022/01/19 05:17:02;;;;;;;27.65;13.30;;;;;;;-5.06;71.03;99173.22;10370748;28;20064;-59
2022/01/19 05:22:01;;;;;;;27.15;14.32;;;;;;;-5.03;71.69;99196.28;10402516;28;20056;-58
2022/01/19 05:27:00;;;;;;;23.13;13.25;;;;;;;-4.99;71.20;99168.69;10411242;28;20067;-59
2022/01/19 05:31:59;;;;;;;32.00;19.45;;;;;;;-5.01;71.53;99203.97;10412021;28;20024;-59
2022/01/19 05:36:58;;;;;;;37.58;19.48;;;;;;;-4.91;71.11;99193.88;10411076;28;20127;-59
2022/01/19 05:41:57;;;;;;;41.80;22.48;;;;;;;-4.85;71.38;99207.00;10401660;28;20021;-59
2022/01/19 05:46:56;;;;;;;43.33;22.58;;;;;;;-4.69;71.09;99206.63;10409985;28;20082;-58
2022/01/19 05:51:55;;;;;;;106.18;49.63;;;;;;;-4.64;70.16;99209.53;10418331;28;20024;-58
2022/01/19 05:56:54;;;;;;;62.08;32.70;;;;;;;-4.51;71.15;99211.41;10418060;28;20036;-58
2022/01/19 06:01:53;;;;;;;74.10;39.17;;;;;;;-4.47;70.17;99214.31;10412380;28;20024;-58
2022/01/19 06:06:56;;;;;;;65.63;32.85;;;;;;;-4.31;69.53;99220.63;10417730;28;20143;-58
2022/01/19 06:11:55;;;;;;;90.32;47.22;;;;;;;-4.23;70.50;99217.06;10417083;28;20074;-58
2022/01/19 06:16:54;;;;;;;81.53;43.42;;;;;;;-4.31;69.76;99196.19;10417864;28;20072;-59
2022/01/19 06:21:53;;;;;;;89.22;49.42;;;;;;;-4.06;69.96;99215.88;10417652;28;20383;-58
2022/01/19 06:26:53;;;;;;;128.82;66.93;;;;;;;-3.87;69.29;99234.31;10414985;28;20056;-58
2022/01/19 06:31:52;;;;;;;159.55;82.85;;;;;;;-3.94;69.15;99216.84;10413954;28;20514;-58
2022/01/19 06:36:53;;;;;;;133.70;71.50;;;;;;;-3.76;69.06;99225.03;10397685;28;20054;-59
2022/01/19 06:41:52;;;;;;;128.48;71.00;;;;;;;-3.72;69.11;99218.53;10416298;28;20060;-58
2022/01/19 06:46:50;;;;;;;128.95;70.13;;;;;;;-3.94;69.75;99176.28;10414854;28;20036;-59
2022/01/19 06:51:50;;;;;;;137.52;78.45;;;;;;;-3.43;68.89;99226.78;10413433;28;20046;-59
2022/01/19 06:56:48;;;;;;;;;;;;;;;-3.39;69.00;99213.56;10418298;28;20083;-58
2022/01/19 07:01:47;;;;;;;146.20;82.78;;;;;;;-3.29;68.85;99217.69;10379700;28;19912;-59
2022/01/19 07:06:46;;;;;;;168.65;89.18;;;;;;;-3.35;68.65;99204.50;10416068;28;20061;-59
2022/01/19 07:11:45;;;;;;;121.18;68.00;;;;;;;-3.23;68.70;99185.13;10416041;28;20035;-59
2022/01/19 07:16:44;;;;;;;115.32;65.13;;;;;;;-2.90;68.34;99196.06;10413011;28;20408;-59
2022/01/19 07:21:43;;;;;;;;;;;;;;;-2.95;68.29;99197.38;10388110;28;20072;-59
2022/01/19 07:26:42;;;;;;;89.55;48.72;;;;;;;-2.80;67.75;99190.03;10375540;28;20043;-59
2022/01/19 07:31:41;;;;;;;72.07;39.17;;;;;;;-2.78;67.45;99193.56;10406809;28;20024;-58
2022/01/19 07:36:40;;;;;;;62.85;36.45;;;;;;;-2.64;66.88;99200.56;10379409;28;20096;-59
2022/01/19 07:41:40;;;;;;;94.20;46.50;;;;;;;-2.65;66.42;99188.63;10412569;28;20028;-59
2022/01/19 07:46:39;;;;;;;;;;;;;;;-2.63;65.64;99191.28;10414567;28;20068;-59
2022/01/19 07:51:37;;;;;;;136.38;58.63;;;;;;;-2.61;65.87;99185.53;10414471;28;20016;-58
2022/01/19 07:56:36;;;;;;;129.32;60.53;;;;;;;-2.39;65.30;99187.09;10413940;28;20040;-59
2022/01/19 08:01:36;;;;;;;105.65;50.08;;;;;;;-2.29;64.73;99197.16;10410488;28;20110;-58
2022/01/19 08:06:35;;;;;;;;;;;;;;;-2.16;64.12;99193.84;10413542;28;20068;-59
2022/01/19 08:11:33;;;;;;;98.57;50.67;;;;;;;-2.10;64.51;99177.38;10422242;28;20299;-59
2022/01/19 08:16:32;;;;;;;103.47;52.80;;;;;;;-2.00;63.98;99190.75;10454903;28;20101;-58
2022/01/19 08:21:31;;;;;;;104.03;53.65;;;;;;;-1.90;63.79;99177.91;10455008;28;20115;-59
2022/01/19 08:26:30;;;;;;;97.13;50.38;;;;;;;-1.80;63.91;99167.56;10436024;28;20495;-59
2022/01/19 08:31:29;;;;;;;95.90;51.28;;;;;;;-1.67;63.33;99170.22;10453919;28;20058;-59
2022/01/19 08:36:28;;;;;;;100.63;52.97;;;;;;;-1.59;62.13;99162.22;10415685;28;20047;-59
2022/01/19 08:41:27;;;;;;;100.45;54.42;;;;;;;-1.60;62.16;99168.09;10394342;28;20488;-59
2022/01/19 08:46:27;;;;;;;93.70;52.00;;;;;;;-1.60;62.42;99165.56;10412252;28;20578;-58
2022/01/19 08:51:26;;;;;;;82.10;47.15;;;;;;;-1.60;61.83;99155.38;10411582;28;20503;-58
2022/01/19 08:56:25;;;;;;;103.60;55.67;;;;;;;-1.48;62.11;99162.19;10410611;28;20399;-59
2022/01/19 09:01:24;;;;;;;124.30;66.28;;;;;;;-1.38;61.10;99147.53;10412058;28;20044;-58
2022/01/19 09:06:24;;;;;;;111.93;65.57;;;;;;;-1.10;61.20;99169.00;10408407;28;20609;-58
2022/01/19 09:11:23;;;;;;;116.07;67.53;;;;;;;-1.03;60.07;99162.66;10410645;28;20068;-60
2022/01/19 09:16:23;;;;;;;118.90;68.38;;;;;;;-0.95;60.24;99150.41;10411607;28;20094;-60
2022/01/19 09:21:22;;;;;;;129.35;76.55;;;;;;;-0.91;59.75;99135.44;10415015;28;20068;-60
2022/01/19 09:26:21;;;;;;;107.55;62.65;;;;;;;-0.82;59.44;99137.72;10420056;28;20099;-60
2022/01/19 09:31:20;;;;;;;93.28;49.83;;;;;;;-0.77;58.35;99121.06;10420038;28;20072;-60
2022/01/19 09:36:35;;;;;;;91.60;48.13;;;;;;;-0.86;58.76;99094.97;10414877;28;20048;-60
2022/01/19 09:41:34;;;;;;;79.97;46.03;;;;;;;-0.65;59.16;99093.84;10418933;28;20068;-60
2022/01/19 09:46:35;;;;;;;70.57;38.60;;;;;;;-0.68;58.09;99021.38;10418871;28;20067;-60
2022/01/19 09:51:34;;;;;;;42.63;25.70;;;;;;;-0.22;56.89;99062.53;10418520;28;20076;-60
2022/01/19 09:56:33;;;;;;;42.78;22.75;;;;;;;0.17;56.00;99093.81;10418455;28;20086;-60
2022/01/19 10:01:32;;;;;;;33.97;22.65;;;;;;;0.32;54.18;99089.66;10418562;28;20032;-60
2022/01/19 10:06:31;;;;;;;29.58;18.45;;;;;;;0.46;52.60;99086.28;10414373;28;20050;-58
2022/01/19 10:17:00;;;;;;;38.95;22.63;;;;;;;1.03;51.23;99066.59;10418094;28;20071;-58
2022/01/19 10:22:02;;;;;;;33.22;16.60;;;;;;;1.19;49.98;99065.81;10398703;28;20092;-58
2022/01/19 10:27:21;;;;;;;21.42;12.30;;;;;;;1.40;48.77;99052.47;10417139;28;20074;-58
2022/01/19 10:32:22;;;;;;;21.27;12.85;;;;;;;1.56;48.18;99046.53;10416476;28;20102;-58
2022/01/19 10:37:26;;;;;;;27.48;19.35;;;;;;;1.71;47.88;99042.25;10413570;28;20460;-58
2022/01/19 10:42:27;;;;;;;17.08;8.85;;;;;;;1.87;47.21;99020.94;10416897;28;20059;-58
2022/01/19 10:47:49;;;;;;;20.90;12.45;;;;;;;1.82;46.09;99012.13;10420748;28;20055;-58
2022/01/19 10:52:49;;;;;;;14.43;8.20;;;;;;;2.03;47.33;98991.91;10433591;28;20476;-60
2022/01/19 10:57:50;;;;;;;12.93;7.63;;;;;;;2.22;46.00;98986.06;10416344;28;20071;-60
2022/01/19 11:02:52;;;;;;;13.65;8.02;;;;;;;2.41;45.64;98988.75;10423426;28;20161;-58
2022/01/19 11:07:51;;;;;;;12.32;6.13;;;;;;;2.52;45.76;98987.63;10433149;28;20574;-59
2022/01/19 11:12:55;;;;;;;17.42;6.70;;;;;;;2.65;45.35;98957.47;10416059;28;20436;-58
2022/01/19 11:17:54;;;;;;;16.10;7.07;;;;;;;2.81;45.61;98949.75;10414118;28;20067;-58
2022/01/19 11:23:15;;;;;;;11.40;5.40;;;;;;;2.84;43.87;98933.63;10414836;28;20139;-58
2022/01/19 11:28:33;;;;;;;79.22;42.42;;;;;;;2.68;43.77;98926.91;10396797;28;20149;-58
2022/01/19 11:33:41;;;;;;;15.40;6.82;;;;;;;2.65;43.29;98901.09;10414922;28;20555;-60
2022/01/19 11:38:45;;;;;;;21.02;11.05;;;;;;;2.85;44.15;98917.47;10411054;28;20079;-60
2022/01/19 11:43:52;;;;;;;15.43;8.35;;;;;;;3.04;44.52;98908.97;10411772;28;20064;-60
2022/01/19 11:48:51;;;;;;;15.93;8.77;;;;;;;2.94;42.41;98911.09;10413956;28;20481;-60
2022/01/19 11:54:12;;;;;;;15.88;6.80;;;;;;;3.12;43.10;98905.06;10413856;28;20462;-58
2022/01/19 11:59:11;;;;;;;13.70;5.68;;;;;;;3.30;43.07;98898.22;10399820;28;20057;-60
2022/01/19 12:04:16;;;;;;;21.52;11.60;;;;;;;3.33;42.32;98882.09;10373480;28;20025;-59
2022/01/19 12:09:16;;;;;;;16.60;9.90;;;;;;;3.29;41.31;98875.94;10377204;28;20064;-59
2022/01/19 12:14:20;;;;;;;18.70;10.27;;;;;;;3.10;41.13;98868.22;10413428;28;20093;-59
2022/01/19 12:19:27;;;;;;;9.88;6.38;;;;;;;3.24;40.64;98864.59;10411949;28;20072;-59
2022/01/19 12:24:40;;;;;;;12.23;7.25;;;;;;;3.14;40.92;98862.41;10413397;28;20060;-59
2022/01/19 12:29:49;;;;;;;19.15;8.05;;;;;;;3.28;40.81;98851.09;10411243;28;20064;-59
2022/01/19 12:35:07;;;;;;;13.33;7.03;;;;;;;3.54;41.04;98823.16;10386194;28;20072;-59
2022/01/19 12:40:29;;;;;;;16.35;7.97;;;;;;;3.66;40.44;98810.88;10375429;28;20059;-59
2022/01/19 12:45:44;;;;;;;10.50;6.45;;;;;;;3.85;39.99;98800.56;10409437;28;20475;-59
2022/01/19 12:50:47;;;;;;;13.38;6.45;;;;;;;3.93;39.49;98782.03;10412038;28;20063;-59
2022/01/19 12:55:49;;;;;;;14.45;7.57;;;;;;;3.98;38.92;98801.94;10411101;28;20076;-59
2022/01/19 13:00:53;;;;;;;17.70;8.70;;;;;;;3.95;39.18;98799.25;10412320;28;20068;-59
2022/01/19 13:05:55;;;;;;;12.35;6.57;;;;;;;4.11;39.57;98795.66;10411252;28;20071;-59
2022/01/19 13:11:00;;;;;;;14.00;5.78;;;;;;;4.18;39.51;98792.50;10406692;28;20071;-59
2022/01/19 13:16:02;;;;;;;15.43;6.60;;;;;;;4.26;39.28;98801.38;10411686;28;20422;-59
2022/01/19 13:21:16;;;;;;;12.90;7.90;;;;;;;4.28;39.10;98792.06;10411476;28;20472;-59
2022/01/19 13:26:15;;;;;;;15.60;6.65;;;;;;;4.32;39.68;98776.78;10411685;28;20068;-59
2022/01/19 13:31:23;;;;;;;9.93;6.05;;;;;;;4.33;39.25;98768.25;10410297;28;20075;-59
2022/01/19 13:36:33;;;;;;;15.27;8.23;;;;;;;4.36;39.13;98748.69;10411075;28;20080;-59
2022/01/19 13:41:41;;;;;;;18.25;7.40;;;;;;;4.31;39.41;98729.63;10407132;28;20359;-59
2022/01/19 13:46:40;;;;;;;17.50;8.93;;;;;;;4.37;38.83;98747.00;10412141;28;20064;-59
2022/01/19 13:51:43;;;;;;;21.27;13.93;;;;;;;4.37;38.72;98734.16;10391007;28;20106;-59
2022/01/19 13:56:42;;;;;;;13.50;8.05;;;;;;;4.39;38.18;98740.22;10410909;28;20068;-59
2022/01/19 14:01:56;;;;;;;23.05;14.80;;;;;;;4.25;37.54;98735.41;10410664;28;20504;-59
2022/01/19 14:07:04;;;;;;;18.17;9.82;;;;;;;4.28;37.83;98744.94;10413243;28;20075;-59
2022/01/19 14:12:11;;;;;;;16.48;7.70;;;;;;;4.33;37.97;98738.28;10417955;28;20063;-59
2022/01/19 14:17:22;;;;;;;21.25;8.60;;;;;;;4.21;38.51;98725.81;10416176;28;20051;-59
2022/01/19 14:22:21;;;;;;;20.15;9.73;;;;;;;4.23;39.79;98726.78;10417417;28;20079;-59
2022/01/19 14:27:23;;;;;;;20.30;12.38;;;;;;;4.06;39.73;98722.66;10417450;28;20392;-59
2022/01/19 14:32:37;;;;;;;23.67;12.18;;;;;;;3.92;40.31;98713.53;10416724;28;20075;-59
2022/01/19 14:37:37;;;;;;;18.42;8.98;;;;;;;3.73;40.48;98697.38;10415085;28;20063;-59
2022/01/19 14:42:38;;;;;;;18.08;10.30;;;;;;;3.67;40.88;98715.06;10416315;28;20535;-59
2022/01/19 14:47:37;;;;;;;21.38;10.95;;;;;;;3.54;41.37;98715.38;10413844;28;20095;-59
2022/01/19 14:52:36;;;;;;;37.03;15.65;;;;;;;3.31;42.25;98711.81;10415666;28;20076;-59
2022/01/19 14:57:35;;;;;;;31.77;16.95;;;;;;;3.16;42.73;98712.91;10417197;28;20107;-59
2022/01/19 15:02:34;;;;;;;38.58;19.17;;;;;;;2.97;43.81;98706.09;10416015;28;20032;-59
2022/01/19 15:07:36;;;;;;;39.85;20.45;;;;;;;2.74;44.46;98711.88;10416077;28;20071;-59
2022/01/19 15:12:37;;;;;;;51.88;27.02;;;;;;;2.47;45.68;98707.28;10416190;28;20072;-59
2022/01/19 15:17:38;;;;;;;51.20;28.05;;;;;;;2.27;45.83;98708.03;10409085;28;20530;-59
2022/01/19 15:22:37;;;;;;;42.67;23.00;;;;;;;1.80;46.84;98683.59;10415765;28;20059;-59
2022/01/19 15:27:36;;;;;;;38.28;21.63;;;;;;;1.69;47.36;98701.88;10415154;28;20038;-59
2022/01/19 15:32:36;;;;;;;41.97;23.40;;;;;;;1.50;47.81;98694.94;10414327;28;20084;-59
2022/01/19 15:37:35;;;;;;;44.75;25.17;;;;;;;1.27;48.05;98693.81;10415036;28;20072;-59
2022/01/19 15:42:34;;;;;;;41.10;22.20;;;;;;;1.08;48.00;98691.09;10414892;28;20082;-59
2022/01/19 15:47:33;;;;;;;42.17;18.13;;;;;;;0.86;47.56;98673.78;10411292;28;20039;-59
2022/01/19 15:52:32;;;;;;;23.25;13.00;;;;;;;0.86;46.96;98686.56;10413885;28;20083;-59
2022/01/19 15:57:31;;;;;;;22.15;9.95;;;;;;;0.74;46.56;98679.16;10414070;28;20102;-59
2022/01/19 16:02:30;;;;;;;41.85;24.67;;;;;;;0.79;46.60;98694.72;10411758;28;20099;-59
2022/01/19 16:07:31;;;;;;;54.75;27.92;;;;;;;0.60;47.07;98680.09;10413004;28;20036;-59
2022/01/19 16:12:30;;;;;;;42.47;22.48;;;;;;;0.73;47.05;98707.16;10413695;28;20061;-59
2022/01/19 16:17:29;;;;;;;46.85;20.38;;;;;;;0.66;47.47;98718.72;10409664;28;20024;-59
2022/01/19 16:27:46;;;;;;;51.35;25.60;;;;;;;0.24;48.78;98692.63;10412861;28;20135;-59
2022/01/19 16:32:45;;;;;;;51.40;23.27;;;;;;;0.22;49.34;98707.00;10411954;28;20495;-59
2022/01/19 16:37:44;;;;;;;56.20;32.95;;;;;;;0.01;49.81;98693.94;10412580;28;20462;-59
2022/01/19 16:42:43;;;;;;;92.15;53.70;;;;;;;0.02;50.63;98721.19;10410786;28;20067;-59
2022/01/19 16:47:45;;;;;;;109.40;65.38;;;;;;;-0.14;51.07;98723.69;10411931;28;20072;-59
2022/01/19 16:52:45;;;;;;;123.05;71.57;;;;;;;-0.27;52.25;98732.31;10412275;28;20054;-59
2022/01/19 16:57:45;;;;;;;133.75;76.72;;;;;;;-0.42;52.52;98722.09;10411978;28;20078;-59
2022/01/19 17:02:44;;;;;;;119.05;71.50;;;;;;;-0.55;52.87;98729.84;10411127;28;20570;-59
2022/01/19 17:07:43;;;;;;;148.70;85.40;;;;;;;-0.68;53.34;98729.13;10411275;28;20119;-59
2022/01/19 17:12:42;;;;;;;167.88;94.45;;;;;;;-1.23;53.60;98655.41;10411885;28;20037;-59
2022/01/19 17:17:47;;;;;;;194.35;113.60;;;;;;;-0.97;55.40;98729.09;10417734;28;20039;-59
2022/01/19 17:22:46;;;;;;;197.90;113.22;;;;;;;-1.07;55.27;98725.97;10410849;28;20166;-59
2022/01/19 17:27:45;;;;;;;216.70;119.35;;;;;;;-1.16;55.42;98727.09;10410197;28;20546;-59
2022/01/19 17:32:45;;;;;;;190.75;110.28;;;;;;;-1.26;55.89;98712.91;10411120;28;20581;-59
2022/01/19 17:37:44;;;;;;;179.77;105.32;;;;;;;-1.29;56.20;98717.81;10411216;28;20104;-59
2022/01/19 17:42:43;;;;;;;189.60;111.00;;;;;;;-1.38;56.10;98707.06;10415262;28;20035;-59
2022/01/19 17:47:52;;;;;;;176.90;104.50;;;;;;;-1.46;57.49;98709.16;10419085;28;20068;-59
2022/01/19 17:52:51;;;;;;;;;;;;;;;-1.64;58.52;98702.13;10419142;28;20071;-59
2022/01/19 17:57:50;;;;;;;133.43;75.47;;;;;;;-1.68;58.28;98687.47;10419153;28;19919;-59
2022/01/19 18:02:49;;;;;;;157.65;89.65;;;;;;;-1.76;58.17;98681.03;10418398;28;20056;-59
2022/01/19 18:07:48;;;;;;;161.38;91.55;;;;;;;-1.82;58.20;98675.56;10416558;28;20064;-59
2022/01/19 18:12:47;;;;;;;137.27;79.70;;;;;;;-1.86;58.39;98665.97;10418499;28;20524;-59
2022/01/19 18:17:52;;;;;;;;;;;;;;;-1.92;58.52;98669.00;10418166;28;20468;-59
2022/01/19 18:22:52;;;;;;;113.35;66.53;;;;;;;-2.00;58.63;98666.78;10417811;28;20430;-59
2022/01/19 18:27:52;;;;;;;141.05;79.72;;;;;;;-2.20;59.02;98610.47;10417005;28;20523;-59
2022/01/19 18:32:53;;;;;;;109.80;63.33;;;;;;;-2.06;58.84;98639.28;10417720;28;20072;-59
2022/01/19 18:37:54;;;;;;;124.05;68.72;;;;;;;-2.11;59.60;98626.28;10417203;28;20488;-59
2022/01/19 18:42:55;;;;;;;107.75;60.83;;;;;;;-2.29;59.59;98610.78;10417227;28;20115;-59
2022/01/19 18:47:54;;;;;;;130.25;74.88;;;;;;;-2.25;59.63;98622.00;10415714;28;20076;-59
2022/01/19 18:52:54;;;;;;;177.48;95.28;;;;;;;-2.29;60.84;98628.56;10414666;28;20060;-59
2022/01/19 18:57:53;;;;;;;235.85;124.50;;;;;;;-2.37;60.75;98623.78;10415068;28;20064;-59
2022/01/19 19:02:52;;;;;;;233.13;127.35;;;;;;;-2.38;60.79;98627.09;10415109;28;20496;-59
2022/01/19 19:07:52;;;;;;;349.98;180.20;;;;;;;-2.55;63.05;98621.81;10416175;28;20059;-59
2022/01/19 19:12:51;;;;;;;;;;;;;;;-2.56;63.54;98622.59;10412578;28;20055;-59
2022/01/19 19:17:51;;;;;;;307.90;169.17;;;;;;;-2.73;64.87;98618.13;10416244;28;20467;-59
2022/01/19 19:22:51;;;;;;;262.38;141.10;;;;;;;-2.63;63.46;98609.41;10415107;28;20063;-59
2022/01/19 19:27:56;;;;;;;258.85;138.45;;;;;;;-2.60;63.29;98605.41;10414369;28;20056;-59
2022/01/19 19:32:55;;;;;;;233.43;121.88;;;;;;;-2.72;63.64;98586.84;10412866;28;20075;-59
2022/01/19 19:37:55;;;;;;;139.82;75.20;;;;;;;-2.82;63.88;98587.91;10397299;28;20067;-59
2022/01/19 19:42:55;;;;;;;164.00;91.85;;;;;;;-2.90;64.26;98594.13;10414547;28;20056;-59
2022/01/19 19:47:54;;;;;;;131.93;68.47;;;;;;;-2.85;63.85;98590.25;10396416;28;20129;-59
2022/01/19 19:52:57;;;;;;;;;;;;;;;-2.93;64.79;98589.75;10414151;28;20067;-59
2022/01/19 19:57:57;;;;;;;153.27;80.38;;;;;;;-2.97;65.07;98587.81;10413677;28;19948;-59
2022/01/19 20:02:56;;;;;;;116.82;61.90;;;;;;;-3.04;64.89;98580.53;10413432;28;20086;-59
2022/01/19 20:07:55;;;;;;;148.68;78.50;;;;;;;-3.14;65.33;98580.72;10413121;28;20063;-59
2022/01/19 20:12:54;;;;;;;233.85;119.13;;;;;;;-3.19;66.09;98577.00;10413883;28;20451;-59
2022/01/19 20:17:53;;;;;;;277.40;142.75;;;;;;;-3.33;66.73;98579.50;10393787;28;20484;-59
2022/01/19 20:22:52;;;;;;;140.93;74.53;;;;;;;-3.38;67.02;98575.78;10413823;28;20491;-60
2022/01/19 20:27:52;;;;;;;138.25;76.97;;;;;;;-3.37;66.85;98574.13;10412739;28;20032;-60
2022/01/19 20:32:51;;;;;;;142.23;76.32;;;;;;;-3.39;67.36;98568.06;10412799;28;20079;-60
2022/01/19 20:37:50;;;;;;;148.93;77.38;;;;;;;-3.40;67.08;98559.56;10413144;28;20033;-59
2022/01/19 20:42:49;;;;;;;142.02;75.95;;;;;;;-3.50;67.66;98564.84;10412093;28;20063;-59
2022/01/19 20:47:48;;;;;;;145.52;78.32;;;;;;;-3.55;67.89;98545.88;10412553;28;20593;-59
2022/01/19 20:52:47;;;;;;;162.70;87.90;;;;;;;-3.50;67.98;98559.75;10411332;28;20072;-59
2022/01/19 20:57:46;;;;;;;153.80;82.25;;;;;;;-3.50;68.15;98548.75;10410041;28;20036;-59
2022/01/19 21:02:47;;;;;;;158.63;87.38;;;;;;;-3.54;67.65;98534.94;10392197;28;20064;-59
2022/01/19 21:07:46;;;;;;;174.35;94.90;;;;;;;-3.63;68.47;98529.25;10370215;28;20056;-59
2022/01/19 21:12:46;;;;;;;209.80;110.93;;;;;;;-3.63;68.29;98521.66;10371348;28;20060;-59
2022/01/19 21:17:46;;;;;;;204.05;108.70;;;;;;;-3.64;68.10;98510.63;10370584;28;20558;-59
2022/01/19 21:22:45;;;;;;;212.93;113.95;;;;;;;-3.77;68.96;98511.47;10370264;28;20067;-59
2022/01/19 21:27:44;;;;;;;246.70;130.50;;;;;;;-3.88;69.36;98504.81;10370476;28;20033;-59
2022/01/19 21:32:44;;;;;;;254.07;132.07;;;;;;;-3.87;70.03;98496.41;10370026;28;20076;-59
2022/01/19 21:37:45;;;;;;;216.15;114.47;;;;;;;-3.98;71.16;98489.75;10369846;28;20072;-59
2022/01/19 21:42:44;;;;;;;164.38;81.90;;;;;;;-3.97;69.65;98471.25;10367666;28;20071;-59
2022/01/19 21:47:43;;;;;;;180.57;83.65;;;;;;;-3.92;69.81;98467.34;10369765;28;20074;-59
2022/01/19 21:52:43;;;;;;;184.55;97.93;;;;;;;-3.93;69.71;98457.97;10369474;28;20076;-59
2022/01/19 21:57:42;;;;;;;181.30;96.53;;;;;;;-4.03;69.57;98442.94;10366080;28;20080;-59
2022/01/19 22:02:41;;;;;;;;;;;;;;;-3.98;70.07;98446.66;10370810;28;20072;-59
2022/01/19 22:07:40;;;;;;;183.85;92.93;;;;;;;-4.07;70.21;98453.63;10369166;28;20260;-59
2022/01/19 22:12:40;;;;;;;137.55;71.10;;;;;;;-4.12;69.87;98442.31;10369617;28;20088;-59
2022/01/19 22:17:39;;;;;;;128.55;68.60;;;;;;;-4.47;69.42;98392.66;10369554;28;20084;-59
2022/01/19 22:22:37;;;;;;;129.85;65.82;;;;;;;-4.28;70.25;98440.38;10369118;28;20021;-59
2022/01/19 22:27:37;;;;;;;82.53;45.40;;;;;;;-4.45;71.18;98439.25;10366121;28;20032;-59
2022/01/19 22:32:37;;;;;;;102.40;49.70;;;;;;;-4.52;70.25;98429.47;10376480;28;20083;-59
2022/01/19 22:37:36;;;;;;;114.28;58.15;;;;;;;-4.58;70.36;98418.91;10376599;28;20516;-59
2022/01/19 22:42:36;;;;;;;142.25;74.03;;;;;;;-4.59;70.29;98409.56;10376269;28;20071;-59
2022/01/19 22:47:36;;;;;;;180.00;90.78;;;;;;;-4.61;71.08;98402.75;10376071;28;20064;-59
2022/01/19 22:52:35;;;;;;;197.98;98.97;;;;;;;-4.59;70.29;98401.97;10375798;28;20060;-59
2022/01/19 22:57:34;;;;;;;198.32;105.70;;;;;;;-4.60;71.47;98380.84;10372475;28;20519;-59
2022/01/19 23:02:34;;;;;;;177.05;94.85;;;;;;;-4.78;71.35;98345.00;10357195;28;20071;-59
2022/01/19 23:07:33;;;;;;;197.90;106.55;;;;;;;-4.49;70.33;98373.94;10372203;28;20507;-59
2022/01/19 23:12:35;;;;;;;215.15;110.53;;;;;;;-4.51;70.60;98362.84;10374766;28;20045;-59
2022/01/19 23:17:34;;;;;;;204.27;106.85;;;;;;;-4.69;70.30;98334.63;10374188;28;20491;-59
2022/01/19 23:22:33;;;;;;;;;;;;;;;-4.54;70.46;98342.38;10370681;28;20351;-59
2022/01/19 23:27:34;;;;;;;144.27;78.03;;;;;;;-4.62;70.71;98335.16;10370470;28;19947;-59
2022/01/19 23:32:40;;;;;;;131.70;70.22;;;;;;;-4.60;71.42;98342.84;10367800;28;20083;-60
2022/01/19 23:48:03;;;;;;;100.30;50.70;;;;;;;-4.67;70.64;98321.31;10373116;28;20602;-59
2022/01/19 23:53:03;;;;;;;144.68;75.57;;;;;;;-4.71;69.78;98301.59;10370464;28;20068;-59
